sensor_id;sensor_type;location;lat;lon;timestamp;pressure;altitude;pressure_sealevel;temperature;humidity
21828;BME280;11076;47.942;11.804;2022-12-24T00:02:07;93775.50;;;9.97;97.00
21828;BME280;11076;47.942;11.804;2022-12-24T00:07:09;93787.56;;;10.00;97.08
21828;BME280;11076;47.942;11.804;2022-12-24T00:12:12;93794.19;;;9.97;97.80
21828;BME280;11076;47.942;11.804;2022-12-24T00:17:14;93804.16;;;9.90;98.36
21828;BME280;11076;47.942;11.804;2022-12-24T00:22:17;93800.69;;;10.01;97.44
21828;BME280;11076;47.942;11.804;2022-12-24T00:27:19;93815.81;;;10.07;97.19
21828;BME280;11076;47.942;11.804;2022-12-24T00:32:21;93822.06;;;10.01;97.52
21828;BME280;11076;47.942;11.804;2022-12-24T00:37:23;93811.94;;;9.91;97.93
21828;BME280;11076;47.942;11.804;2022-12-24T00:42:26;93810.22;;;9.97;97.90
21828;BME280;11076;47.942;11.804;2022-12-24T00:47:28;93802.88;;;9.92;98.29
21828;BME280;11076;47.942;11.804;2022-12-24T00:52:31;93835.59;;;9.88;98.16
21828;BME280;11076;47.942;11.804;2022-12-24T00:57:33;93849.22;;;9.98;97.09
21828;BME280;11076;47.942;11.804;2022-12-24T01:02:35;93848.94;;;9.88;97.72
21828;BME280;11076;47.942;11.804;2022-12-24T01:07:41;93840.56;;;9.84;97.59
21828;BME280;11076;47.942;11.804;2022-12-24T01:12:45;93858.91;;;9.81;98.03
21828;BME280;11076;47.942;11.804;2022-12-24T01:17:48;93878.63;;;9.80;97.64
21828;BME280;11076;47.942;11.804;2022-12-24T01:22:50;93896.00;;;9.70;97.79
21828;BME280;11076;47.942;11.804;2022-12-24T01:27:52;93898.22;;;9.73;98.05
21828;BME280;11076;47.942;11.804;2022-12-24T01:32:55;93913.50;;;9.66;98.94
21828;BME280;11076;47.942;11.804;2022-12-24T01:37:57;93919.63;;;9.55;99.10
21828;BME280;11076;47.942;11.804;2022-12-24T01:42:59;93909.97;;;9.54;99.00
21828;BME280;11076;47.942;11.804;2022-12-24T01:48:43;93918.94;;;9.60;98.31
21828;BME280;11076;47.942;11.804;2022-12-24T01:53:46;93941.25;;;9.65;98.08
21828;BME280;11076;47.942;11.804;2022-12-24T01:58:54;93944.66;;;9.54;98.88
21828;BME280;11076;47.942;11.804;2022-12-24T02:04:02;93951.63;;;9.55;98.14
21828;BME280;11076;47.942;11.804;2022-12-24T02:09:06;93955.41;;;9.66;97.32
21828;BME280;11076;47.942;11.804;2022-12-24T02:14:08;93955.19;;;9.67;96.41
21828;BME280;11076;47.942;11.804;2022-12-24T02:35:18;93979.00;;;9.69;91.79
21828;BME280;11076;47.942;11.804;2022-12-24T02:40:28;93987.66;;;9.64;92.62
21828;BME280;11076;47.942;11.804;2022-12-24T02:45:33;93989.34;;;9.59;93.16
21828;BME280;11076;47.942;11.804;2022-12-24T02:50:37;93995.78;;;9.51;93.36
21828;BME280;11076;47.942;11.804;2022-12-24T02:56:03;93995.19;;;9.49;94.57
21828;BME280;11076;47.942;11.804;2022-12-24T03:11:27;94011.78;;;9.32;97.37
21828;BME280;11076;47.942;11.804;2022-12-24T03:16:30;94017.50;;;9.36;97.76
21828;BME280;11076;47.942;11.804;2022-12-24T03:21:34;94012.09;;;9.43;97.41
21828;BME280;11076;47.942;11.804;2022-12-24T03:26:39;94017.06;;;9.39;97.59
21828;BME280;11076;47.942;11.804;2022-12-24T03:31:44;94013.16;;;9.42;97.21
21828;BME280;11076;47.942;11.804;2022-12-24T03:36:48;93997.56;;;9.39;95.97
21828;BME280;11076;47.942;11.804;2022-12-24T03:41:51;94010.16;;;9.31;96.35
21828;BME280;11076;47.942;11.804;2022-12-24T03:46:53;94016.00;;;9.22;96.57
21828;BME280;11076;47.942;11.804;2022-12-24T03:51:56;94025.28;;;9.19;96.96
21828;BME280;11076;47.942;11.804;2022-12-24T03:56:58;94030.84;;;9.11;97.28
21828;BME280;11076;47.942;11.804;2022-12-24T04:02:00;94020.19;;;9.11;96.89
21828;BME280;11076;47.942;11.804;2022-12-24T04:07:04;94017.00;;;9.02;97.30
21828;BME280;11076;47.942;11.804;2022-12-24T04:12:07;94034.00;;;9.01;97.39
21828;BME280;11076;47.942;11.804;2022-12-24T04:17:09;94049.19;;;9.01;97.80
21828;BME280;11076;47.942;11.804;2022-12-24T04:22:12;94055.13;;;9.03;98.03
21828;BME280;11076;47.942;11.804;2022-12-24T04:27:14;94054.09;;;9.04;97.63
21828;BME280;11076;47.942;11.804;2022-12-24T04:32:17;94056.19;;;9.02;98.00
21828;BME280;11076;47.942;11.804;2022-12-24T04:37:19;94056.78;;;9.04;97.72
21828;BME280;11076;47.942;11.804;2022-12-24T04:42:22;94077.78;;;8.93;98.49
21828;BME280;11076;47.942;11.804;2022-12-24T04:47:24;94060.91;;;9.00;96.49
21828;BME280;11076;47.942;11.804;2022-12-24T04:52:27;94052.56;;;9.14;94.49
21828;BME280;11076;47.942;11.804;2022-12-24T04:57:33;94065.31;;;9.12;94.02
21828;BME280;11076;47.942;11.804;2022-12-24T05:02:36;94076.38;;;9.16;93.19
21828;BME280;11076;47.942;11.804;2022-12-24T05:07:39;94080.50;;;9.12;93.50
21828;BME280;11076;47.942;11.804;2022-12-24T05:12:41;94079.34;;;9.26;91.87
21828;BME280;11076;47.942;11.804;2022-12-24T05:17:43;94082.91;;;9.20;92.55
21828;BME280;11076;47.942;11.804;2022-12-24T05:22:46;94084.53;;;9.21;93.08
21828;BME280;11076;47.942;11.804;2022-12-24T05:28:07;94081.09;;;9.14;92.90
21828;BME280;11076;47.942;11.804;2022-12-24T05:33:09;94084.63;;;9.08;93.18
21828;BME280;11076;47.942;11.804;2022-12-24T05:38:12;94093.63;;;9.13;92.26
21828;BME280;11076;47.942;11.804;2022-12-24T05:43:14;94098.72;;;9.15;90.83
21828;BME280;11076;47.942;11.804;2022-12-24T05:48:16;94103.09;;;9.09;90.31
21828;BME280;11076;47.942;11.804;2022-12-24T05:53:19;94127.31;;;9.08;89.95
21828;BME280;11076;47.942;11.804;2022-12-24T05:58:21;94140.44;;;9.03;90.27
21828;BME280;11076;47.942;11.804;2022-12-24T06:03:23;94137.63;;;8.98;87.94
21828;BME280;11076;47.942;11.804;2022-12-24T06:08:26;94154.00;;;9.01;81.62
21828;BME280;11076;47.942;11.804;2022-12-24T06:13:29;94156.09;;;8.92;81.06
21828;BME280;11076;47.942;11.804;2022-12-24T06:18:34;94160.25;;;8.88;80.61
21828;BME280;11076;47.942;11.804;2022-12-24T06:23:38;94150.63;;;8.87;78.69
21828;BME280;11076;47.942;11.804;2022-12-24T06:28:42;94173.38;;;8.83;77.59
21828;BME280;11076;47.942;11.804;2022-12-24T06:33:45;94170.75;;;8.76;77.34
21828;BME280;11076;47.942;11.804;2022-12-24T06:38:48;94155.41;;;8.72;77.99
21828;BME280;11076;47.942;11.804;2022-12-24T06:43:51;94174.22;;;8.77;75.88
21828;BME280;11076;47.942;11.804;2022-12-24T06:48:54;94195.78;;;8.69;77.19
21828;BME280;11076;47.942;11.804;2022-12-24T06:53:56;94197.69;;;8.62;78.17
21828;BME280;11076;47.942;11.804;2022-12-24T06:58:58;94205.06;;;8.60;77.19
21828;BME280;11076;47.942;11.804;2022-12-24T07:04:04;94196.47;;;8.51;78.42
21828;BME280;11076;47.942;11.804;2022-12-24T07:09:07;94221.50;;;8.50;78.88
21828;BME280;11076;47.942;11.804;2022-12-24T07:14:12;94207.78;;;8.40;79.29
21828;BME280;11076;47.942;11.804;2022-12-24T07:19:15;94209.59;;;8.39;79.46
21828;BME280;11076;47.942;11.804;2022-12-24T07:24:17;94207.97;;;8.38;78.48
21828;BME280;11076;47.942;11.804;2022-12-24T07:29:21;94222.31;;;8.37;78.60
21828;BME280;11076;47.942;11.804;2022-12-24T07:34:23;94232.56;;;8.33;78.63
21828;BME280;11076;47.942;11.804;2022-12-24T07:39:26;94239.53;;;8.34;77.61
21828;BME280;11076;47.942;11.804;2022-12-24T07:44:28;94243.63;;;8.37;77.06
21828;BME280;11076;47.942;11.804;2022-12-24T07:49:30;94253.06;;;8.40;75.85
21828;BME280;11076;47.942;11.804;2022-12-24T07:54:33;94262.28;;;8.50;75.29
21828;BME280;11076;47.942;11.804;2022-12-24T07:59:35;94273.75;;;8.58;73.94
21828;BME280;11076;47.942;11.804;2022-12-24T08:04:37;94275.38;;;8.59;72.66
21828;BME280;11076;47.942;11.804;2022-12-24T08:09:40;94276.84;;;8.48;73.10
21828;BME280;11076;47.942;11.804;2022-12-24T08:14:42;94283.19;;;8.47;72.27
21828;BME280;11076;47.942;11.804;2022-12-24T08:19:44;94305.31;;;8.47;72.69
21828;BME280;11076;47.942;11.804;2022-12-24T08:24:47;94306.97;;;8.48;72.71
21828;BME280;11076;47.942;11.804;2022-12-24T08:29:49;94307.56;;;8.50;71.48
21828;BME280;11076;47.942;11.804;2022-12-24T08:34:51;94308.22;;;8.46;70.70
21828;BME280;11076;47.942;11.804;2022-12-24T08:39:54;94322.34;;;8.46;70.68
21828;BME280;11076;47.942;11.804;2022-12-24T08:44:56;94317.00;;;8.46;69.49
21828;BME280;11076;47.942;11.804;2022-12-24T08:49:58;94322.13;;;8.54;69.67
21828;BME280;11076;47.942;11.804;2022-12-24T08:55:01;94328.47;;;8.60;68.87
21828;BME280;11076;47.942;11.804;2022-12-24T09:00:05;94333.16;;;8.71;68.02
21828;BME280;11076;47.942;11.804;2022-12-24T09:05:08;94333.56;;;8.75;67.35
21828;BME280;11076;47.942;11.804;2022-12-24T09:10:11;94333.72;;;8.87;65.87
21828;BME280;11076;47.942;11.804;2022-12-24T09:15:13;94345.19;;;9.01;66.43
21828;BME280;11076;47.942;11.804;2022-12-24T09:20:16;94348.81;;;9.13;66.78
21828;BME280;11076;47.942;11.804;2022-12-24T09:25:18;94343.13;;;9.09;65.42
21828;BME280;11076;47.942;11.804;2022-12-24T09:30:21;94356.94;;;9.38;65.87
21828;BME280;11076;47.942;11.804;2022-12-24T09:35:23;94365.16;;;9.43;65.07
21828;BME280;11076;47.942;11.804;2022-12-24T09:40:30;94369.63;;;9.49;65.92
21828;BME280;11076;47.942;11.804;2022-12-24T09:45:37;94366.72;;;9.51;64.71
21828;BME280;11076;47.942;11.804;2022-12-24T09:50:50;94363.84;;;9.59;64.68
21828;BME280;11076;47.942;11.804;2022-12-24T09:55:58;94367.56;;;9.45;65.34
21828;BME280;11076;47.942;11.804;2022-12-24T10:01:02;94369.44;;;9.44;65.83
21828;BME280;11076;47.942;11.804;2022-12-24T10:06:09;94365.34;;;9.42;64.89
21828;BME280;11076;47.942;11.804;2022-12-24T10:11:26;94362.84;;;9.47;64.94
21828;BME280;11076;47.942;11.804;2022-12-24T10:16:45;94367.34;;;9.53;64.37
21828;BME280;11076;47.942;11.804;2022-12-24T10:27:14;94366.28;;;10.31;62.48
21828;BME280;11076;47.942;11.804;2022-12-24T10:32:27;94357.94;;;10.46;61.64
21828;BME280;11076;47.942;11.804;2022-12-24T10:37:30;94373.09;;;10.20;62.34
21828;BME280;11076;47.942;11.804;2022-12-24T10:42:38;94370.09;;;10.10;61.90
21828;BME280;11076;47.942;11.804;2022-12-24T10:47:51;94363.13;;;10.09;62.52
21828;BME280;11076;47.942;11.804;2022-12-24T10:53:03;94352.53;;;9.95;61.48
21828;BME280;11076;47.942;11.804;2022-12-24T10:58:16;94352.25;;;9.72;62.44
21828;BME280;11076;47.942;11.804;2022-12-24T11:03:34;94359.59;;;9.76;62.47
21828;BME280;11076;47.942;11.804;2022-12-24T11:08:40;94360.41;;;9.84;61.74
21828;BME280;11076;47.942;11.804;2022-12-24T11:13:44;94367.88;;;9.68;62.04
21828;BME280;11076;47.942;11.804;2022-12-24T11:18:49;94373.34;;;9.42;62.47
21828;BME280;11076;47.942;11.804;2022-12-24T11:23:58;94369.94;;;9.21;63.61
21828;BME280;11076;47.942;11.804;2022-12-24T11:29:24;94383.13;;;9.03;64.01
21828;BME280;11076;47.942;11.804;2022-12-24T11:34:29;94370.63;;;8.83;64.85
21828;BME280;11076;47.942;11.804;2022-12-24T11:39:38;94357.53;;;8.75;66.50
21828;BME280;11076;47.942;11.804;2022-12-24T11:44:48;94354.84;;;8.88;66.13
21828;BME280;11076;47.942;11.804;2022-12-24T11:49:51;94354.44;;;8.85;66.83
21828;BME280;11076;47.942;11.804;2022-12-24T12:00:18;94353.00;;;8.95;66.64
21828;BME280;11076;47.942;11.804;2022-12-24T12:05:24;94351.94;;;9.10;66.88
21828;BME280;11076;47.942;11.804;2022-12-24T12:10:31;94350.84;;;9.24;66.27
21828;BME280;11076;47.942;11.804;2022-12-24T12:15:42;94352.00;;;9.35;66.17
21828;BME280;11076;47.942;11.804;2022-12-24T12:20:59;94354.44;;;9.50;66.15
21828;BME280;11076;47.942;11.804;2022-12-24T12:26:10;94355.94;;;9.78;66.12
21828;BME280;11076;47.942;11.804;2022-12-24T12:37:04;94356.72;;;9.85;66.49
21828;BME280;11076;47.942;11.804;2022-12-24T12:42:32;94369.09;;;9.72;68.19
21828;BME280;11076;47.942;11.804;2022-12-24T12:47:54;94379.84;;;9.59;69.30
21828;BME280;11076;47.942;11.804;2022-12-24T12:53:20;94382.97;;;9.43;69.54
21828;BME280;11076;47.942;11.804;2022-12-24T12:58:32;94380.38;;;9.29;70.08
21828;BME280;11076;47.942;11.804;2022-12-24T13:03:43;94377.97;;;9.21;70.85
21828;BME280;11076;47.942;11.804;2022-12-24T13:14:24;94391.47;;;9.26;71.15
21828;BME280;11076;47.942;11.804;2022-12-24T13:24:46;94398.53;;;9.59;71.24
21828;BME280;11076;47.942;11.804;2022-12-24T13:29:59;94395.06;;;9.52;71.91
21828;BME280;11076;47.942;11.804;2022-12-24T13:40:24;94396.00;;;9.19;72.76
21828;BME280;11076;47.942;11.804;2022-12-24T13:55:50;94411.06;;;8.73;75.00
21828;BME280;11076;47.942;11.804;2022-12-24T14:06:07;94417.00;;;8.69;76.20
21828;BME280;11076;47.942;11.804;2022-12-24T14:16:29;94428.03;;;8.39;77.43
21828;BME280;11076;47.942;11.804;2022-12-24T14:21:53;94445.47;;;8.22;78.29
21828;BME280;11076;47.942;11.804;2022-12-24T14:27:05;94433.78;;;8.16;79.04
21828;BME280;11076;47.942;11.804;2022-12-24T14:32:17;94445.81;;;8.05;79.78
21828;BME280;11076;47.942;11.804;2022-12-24T14:37:22;94451.56;;;8.02;81.85
21828;BME280;11076;47.942;11.804;2022-12-24T14:42:43;94450.72;;;7.95;81.65
21828;BME280;11076;47.942;11.804;2022-12-24T14:58:35;94463.97;;;7.82;86.25
21828;BME280;11076;47.942;11.804;2022-12-24T15:03:37;94478.47;;;7.66;86.54
21828;BME280;11076;47.942;11.804;2022-12-24T15:08:44;94479.00;;;7.48;86.52
21828;BME280;11076;47.942;11.804;2022-12-24T15:13:53;94478.34;;;7.39;88.14
21828;BME280;11076;47.942;11.804;2022-12-24T15:19:00;94478.94;;;7.34;88.38
21828;BME280;11076;47.942;11.804;2022-12-24T15:24:04;94470.13;;;7.34;89.33
21828;BME280;11076;47.942;11.804;2022-12-24T15:29:19;94464.78;;;7.27;89.31
21828;BME280;11076;47.942;11.804;2022-12-24T15:34:28;94459.03;;;7.24;89.24
21828;BME280;11076;47.942;11.804;2022-12-24T15:39:31;94463.91;;;7.20;89.33
21828;BME280;11076;47.942;11.804;2022-12-24T15:44:36;94461.22;;;7.13;90.12
21828;BME280;11076;47.942;11.804;2022-12-24T15:49:43;94461.03;;;7.15;89.63
21828;BME280;11076;47.942;11.804;2022-12-24T15:54:49;94461.22;;;7.13;89.56
21828;BME280;11076;47.942;11.804;2022-12-24T15:59:58;94470.41;;;7.11;89.48
21828;BME280;11076;47.942;11.804;2022-12-24T16:05:33;94477.16;;;7.07;89.39
21828;BME280;11076;47.942;11.804;2022-12-24T16:10:43;94481.44;;;7.08;89.83
21828;BME280;11076;47.942;11.804;2022-12-24T16:15:53;94482.47;;;7.07;89.82
21828;BME280;11076;47.942;11.804;2022-12-24T16:20:57;94482.84;;;7.04;89.91
21828;BME280;11076;47.942;11.804;2022-12-24T16:25:59;94481.22;;;7.03;90.64
21828;BME280;11076;47.942;11.804;2022-12-24T16:31:02;94466.44;;;7.00;91.21
21828;BME280;11076;47.942;11.804;2022-12-24T16:36:04;94482.38;;;6.93;92.01
21828;BME280;11076;47.942;11.804;2022-12-24T16:41:07;94490.94;;;6.89;91.54
21828;BME280;11076;47.942;11.804;2022-12-24T16:46:11;94492.06;;;6.80;92.22
21828;BME280;11076;47.942;11.804;2022-12-24T16:51:14;94488.34;;;6.74;91.84
21828;BME280;11076;47.942;11.804;2022-12-24T16:56:16;94495.47;;;6.67;91.98
21828;BME280;11076;47.942;11.804;2022-12-24T17:01:18;94492.81;;;6.67;92.43
21828;BME280;11076;47.942;11.804;2022-12-24T17:06:21;94492.03;;;6.73;92.73
21828;BME280;11076;47.942;11.804;2022-12-24T17:11:23;94505.56;;;6.78;92.63
21828;BME280;11076;47.942;11.804;2022-12-24T17:16:25;94516.44;;;6.83;93.05
21828;BME280;11076;47.942;11.804;2022-12-24T17:21:28;94516.66;;;6.88;93.17
21828;BME280;11076;47.942;11.804;2022-12-24T17:26:30;94524.63;;;6.88;92.55
21828;BME280;11076;47.942;11.804;2022-12-24T17:31:33;94519.31;;;6.88;92.93
21828;BME280;11076;47.942;11.804;2022-12-24T17:36:35;94512.63;;;6.92;92.74
21828;BME280;11076;47.942;11.804;2022-12-24T17:41:37;94513.03;;;6.96;92.17
21828;BME280;11076;47.942;11.804;2022-12-24T17:46:40;94502.22;;;6.97;92.51
21828;BME280;11076;47.942;11.804;2022-12-24T17:51:42;94508.78;;;7.02;92.18
21828;BME280;11076;47.942;11.804;2022-12-24T17:56:46;94524.41;;;7.11;91.88
21828;BME280;11076;47.942;11.804;2022-12-24T18:01:48;94518.09;;;7.12;91.88
21828;BME280;11076;47.942;11.804;2022-12-24T18:06:51;94491.28;;;7.14;91.72
21828;BME280;11076;47.942;11.804;2022-12-24T18:11:55;94491.91;;;7.16;91.67
21828;BME280;11076;47.942;11.804;2022-12-24T18:16:58;94510.78;;;7.21;91.43
21828;BME280;11076;47.942;11.804;2022-12-24T18:22:00;94520.63;;;7.27;91.32
21828;BME280;11076;47.942;11.804;2022-12-24T18:27:03;94524.72;;;7.30;90.91
21828;BME280;11076;47.942;11.804;2022-12-24T18:32:05;94515.34;;;7.34;90.60
21828;BME280;11076;47.942;11.804;2022-12-24T18:37:07;94524.16;;;7.34;90.66
21828;BME280;11076;47.942;11.804;2022-12-24T18:42:09;94523.94;;;7.36;90.52
21828;BME280;11076;47.942;11.804;2022-12-24T18:47:15;94531.34;;;7.41;90.22
21828;BME280;11076;47.942;11.804;2022-12-24T18:52:17;94536.69;;;7.41;89.92
21828;BME280;11076;47.942;11.804;2022-12-24T18:57:23;94524.19;;;7.41;89.80
21828;BME280;11076;47.942;11.804;2022-12-24T19:02:25;94519.06;;;7.40;89.90
21828;BME280;11076;47.942;11.804;2022-12-24T19:07:28;94515.00;;;7.44;89.50
21828;BME280;11076;47.942;11.804;2022-12-24T19:12:30;94518.28;;;7.46;89.60
21828;BME280;11076;47.942;11.804;2022-12-24T19:17:33;94533.84;;;7.49;89.11
21828;BME280;11076;47.942;11.804;2022-12-24T19:22:35;94542.22;;;7.46;89.38
21828;BME280;11076;47.942;11.804;2022-12-24T19:27:37;94541.59;;;7.44;89.34
21828;BME280;11076;47.942;11.804;2022-12-24T19:32:40;94541.59;;;7.44;89.23
21828;BME280;11076;47.942;11.804;2022-12-24T19:37:42;94544.66;;;7.41;89.47
21828;BME280;11076;47.942;11.804;2022-12-24T19:42:44;94549.72;;;7.35;90.06
21828;BME280;11076;47.942;11.804;2022-12-24T19:47:50;94536.22;;;7.30;90.15
21828;BME280;11076;47.942;11.804;2022-12-24T19:52:52;94533.34;;;7.32;89.88
21828;BME280;11076;47.942;11.804;2022-12-24T19:57:54;94543.16;;;7.31;89.97
21828;BME280;11076;47.942;11.804;2022-12-24T20:02:57;94549.06;;;7.27;90.41
21828;BME280;11076;47.942;11.804;2022-12-24T20:07:59;94549.25;;;7.25;90.61
21828;BME280;11076;47.942;11.804;2022-12-24T20:13:01;94545.78;;;7.25;90.50
21828;BME280;11076;47.942;11.804;2022-12-24T20:18:07;94534.56;;;7.29;90.49
21828;BME280;11076;47.942;11.804;2022-12-24T20:23:10;94538.25;;;7.28;90.38
21828;BME280;11076;47.942;11.804;2022-12-24T20:28:12;94525.16;;;7.33;90.31
21828;BME280;11076;47.942;11.804;2022-12-24T20:33:16;94533.34;;;7.32;90.38
21828;BME280;11076;47.942;11.804;2022-12-24T20:38:18;94545.19;;;7.29;90.61
21828;BME280;11076;47.942;11.804;2022-12-24T20:43:21;94543.56;;;7.28;90.46
21828;BME280;11076;47.942;11.804;2022-12-24T20:48:25;94550.91;;;7.26;90.71
21828;BME280;11076;47.942;11.804;2022-12-24T20:53:27;94551.28;;;7.23;91.04
21828;BME280;11076;47.942;11.804;2022-12-24T20:58:29;94547.41;;;7.26;90.88
21828;BME280;11076;47.942;11.804;2022-12-24T21:03:32;94533.09;;;7.27;91.02
21828;BME280;11076;47.942;11.804;2022-12-24T21:08:34;94541.91;;;7.27;90.77
21828;BME280;11076;47.942;11.804;2022-12-24T21:13:37;94561.16;;;7.29;90.79
21828;BME280;11076;47.942;11.804;2022-12-24T21:18:39;94562.09;;;7.22;91.52
21828;BME280;11076;47.942;11.804;2022-12-24T21:23:42;94559.00;;;7.18;92.07
21828;BME280;11076;47.942;11.804;2022-12-24T21:28:44;94565.72;;;7.14;92.68
21828;BME280;11076;47.942;11.804;2022-12-24T21:33:46;94557.34;;;7.10;92.79
21828;BME280;11076;47.942;11.804;2022-12-24T21:38:49;94558.53;;;7.08;93.39
21828;BME280;11076;47.942;11.804;2022-12-24T21:43:52;94562.03;;;7.08;94.19
21828;BME280;11076;47.942;11.804;2022-12-24T21:48:55;94555.09;;;7.14;94.15
21828;BME280;11076;47.942;11.804;2022-12-24T21:54:16;94559.00;;;7.18;94.02
21828;BME280;11076;47.942;11.804;2022-12-24T21:59:24;94562.28;;;7.20;94.43
21828;BME280;11076;47.942;11.804;2022-12-24T22:04:29;94563.59;;;7.24;94.20
21828;BME280;11076;47.942;11.804;2022-12-24T22:09:32;94567.69;;;7.27;94.32
21828;BME280;11076;47.942;11.804;2022-12-24T22:14:53;94578.34;;;7.33;94.08
21828;BME280;11076;47.942;11.804;2022-12-24T22:19:55;94577.56;;;7.40;94.31
21828;BME280;11076;47.942;11.804;2022-12-24T22:24:59;94571.63;;;7.37;94.67
21828;BME280;11076;47.942;11.804;2022-12-24T22:30:01;94570.63;;;7.39;94.95
21828;BME280;11076;47.942;11.804;2022-12-24T22:35:03;94573.91;;;7.41;94.73
21828;BME280;11076;47.942;11.804;2022-12-24T22:40:06;94585.75;;;7.38;95.08
21828;BME280;11076;47.942;11.804;2022-12-24T22:45:10;94582.06;;;7.32;95.63
21828;BME280;11076;47.942;11.804;2022-12-24T22:50:14;94589.78;;;7.27;96.39
21828;BME280;11076;47.942;11.804;2022-12-24T22:55:16;94595.91;;;7.28;96.58
21828;BME280;11076;47.942;11.804;2022-12-24T23:00:37;94596.19;;;7.11;97.34
21828;BME280;11076;47.942;11.804;2022-12-24T23:05:40;94597.78;;;7.06;98.67
21828;BME280;11076;47.942;11.804;2022-12-24T23:10:42;94594.00;;;6.93;100.00
21828;BME280;11076;47.942;11.804;2022-12-24T23:15:45;94588.81;;;6.85;100.00
21828;BME280;11076;47.942;11.804;2022-12-24T23:20:47;94603.31;;;6.83;100.00
21828;BME280;11076;47.942;11.804;2022-12-24T23:25:50;94601.28;;;6.85;100.00
21828;BME280;11076;47.942;11.804;2022-12-24T23:30:59;94604.09;;;6.76;100.00
21828;BME280;11076;47.942;11.804;2022-12-24T23:36:01;94597.56;;;6.79;100.00
21828;BME280;11076;47.942;11.804;2022-12-24T23:41:05;94606.66;;;6.70;100.00
21828;BME280;11076;47.942;11.804;2022-12-24T23:46:12;94614.00;;;6.68;100.00
21828;BME280;11076;47.942;11.804;2022-12-24T23:51:18;94609.72;;;6.67;100.00
21828;BME280;11076;47.942;11.804;2022-12-24T23:56:22;94618.94;;;6.71;100.00
